createdAt,value
2022-08-30T00:02:11.200Z,1.00
2022-08-30T00:04:37.919Z,0.80
2022-08-30T00:07:04.765Z,0.63
2022-08-30T00:09:32.308Z,0.60
2022-08-30T00:11:59.103Z,0.67
2022-08-30T00:14:27.977Z,0.60
2022-08-30T00:16:55.328Z,0.60
2022-08-30T00:22:07.344Z,0.50
2022-08-30T00:24:34.139Z,0.50
2022-08-30T00:27:01.241Z,0.30
2022-08-30T00:29:28.023Z,0.40
2022-08-30T00:31:54.712Z,0.50
2022-08-30T00:34:21.565Z,0.47
2022-08-30T00:36:48.323Z,0.50
2022-08-30T00:39:15.173Z,0.40
2022-08-30T00:41:41.890Z,0.50
2022-08-30T00:46:53.244Z,0.30
2022-08-30T00:52:04.268Z,0.40
2022-08-30T00:54:31.792Z,0.40
2022-08-30T00:56:58.493Z,0.50
2022-08-30T00:59:25.418Z,0.47
2022-08-30T01:01:52.173Z,0.37
2022-08-30T01:04:20.279Z,0.53
2022-08-30T01:06:47.135Z,0.50
2022-08-30T01:09:14.238Z,0.43
2022-08-30T01:11:41.853Z,0.70
2022-08-30T01:14:09.234Z,0.30
2022-08-30T01:16:37.802Z,0.50
2022-08-30T01:19:04.643Z,0.60
2022-08-30T01:21:43.117Z,0.40
2022-08-30T01:24:10.074Z,0.40
2022-08-30T01:26:37.496Z,0.80
2022-08-30T01:29:05.519Z,0.70
2022-08-30T01:31:33.951Z,0.60
2022-08-30T01:34:01.285Z,0.60
2022-08-30T01:36:29.197Z,0.73
2022-08-30T01:38:57.033Z,0.50
2022-08-30T01:41:24.799Z,0.80
2022-08-30T01:43:52.260Z,0.70
2022-08-30T01:49:04.660Z,1.10
2022-08-30T01:51:31.457Z,0.70
2022-08-30T01:53:58.278Z,0.70
2022-08-30T01:56:25.860Z,1.07
2022-08-30T01:58:52.609Z,0.70
2022-08-30T02:01:20.055Z,0.60
2022-08-30T02:03:46.932Z,0.80
2022-08-30T02:06:14.843Z,0.70
2022-08-30T02:11:26.434Z,0.80
2022-08-30T02:13:53.228Z,0.63
2022-08-30T02:16:23.023Z,0.90
2022-08-30T02:18:50.253Z,0.60
2022-08-30T02:21:17.047Z,0.80
2022-08-30T02:23:44.275Z,0.70
2022-08-30T02:26:11.201Z,0.70
2022-08-30T02:28:42.902Z,0.73
2022-08-30T02:31:19.385Z,0.50
2022-08-30T02:33:48.247Z,1.07
2022-08-30T02:36:15.490Z,0.70
2022-08-30T02:38:42.271Z,0.47
2022-08-30T02:41:08.984Z,0.60
2022-08-30T02:43:36.076Z,0.57
2022-08-30T02:46:03.052Z,0.40
2022-08-30T02:48:29.803Z,0.60
2022-08-30T02:50:56.585Z,0.50
2022-08-30T02:56:07.981Z,0.50
2022-08-30T02:58:34.796Z,0.60
2022-08-30T03:01:01.961Z,0.80
2022-08-30T03:03:28.843Z,0.50
2022-08-30T03:05:55.806Z,0.50
2022-08-30T03:08:23.008Z,0.50
2022-08-30T03:10:50.246Z,0.80
2022-08-30T03:13:17.344Z,0.60
2022-08-30T03:15:44.329Z,0.60
2022-08-30T03:18:11.260Z,0.50
2022-08-30T03:20:38.965Z,0.40
2022-08-30T03:23:05.822Z,0.70
2022-08-30T03:25:34.016Z,0.50
2022-08-30T03:28:00.981Z,0.60
2022-08-30T03:30:27.761Z,0.50
2022-08-30T03:32:54.540Z,0.67
2022-08-30T03:35:21.362Z,0.60
2022-08-30T03:37:49.253Z,0.70
2022-08-30T03:40:23.161Z,0.60
2022-08-30T03:45:35.305Z,0.80
2022-08-30T03:48:05.147Z,0.87
2022-08-30T03:50:31.980Z,0.70
2022-08-30T03:52:58.745Z,1.03
2022-08-30T03:58:10.588Z,0.70
2022-08-30T04:00:37.341Z,0.80
2022-08-30T04:03:04.277Z,0.80
2022-08-30T04:08:15.741Z,0.70
2022-08-30T04:10:42.721Z,0.73
2022-08-30T04:13:09.511Z,0.50
2022-08-30T04:15:36.368Z,0.80
2022-08-30T04:18:03.181Z,0.80
2022-08-30T04:20:30.061Z,0.70
2022-08-30T04:22:57.021Z,0.50
2022-08-30T04:25:23.832Z,0.60
2022-08-30T04:27:51.350Z,0.50
2022-08-30T04:30:18.451Z,0.60
2022-08-30T04:32:45.160Z,0.80
2022-08-30T04:35:11.951Z,0.70
2022-08-30T04:37:38.792Z,0.93
2022-08-30T04:40:06.314Z,1.00
2022-08-30T04:42:34.144Z,0.70
2022-08-30T04:45:05.822Z,0.60
2022-08-30T04:47:32.706Z,0.73
2022-08-30T04:49:59.835Z,0.70
2022-08-30T04:52:26.809Z,0.90
2022-08-30T04:54:56.897Z,0.70
2022-08-30T04:57:23.923Z,0.77
2022-08-30T04:59:51.157Z,0.90
2022-08-30T05:02:18.115Z,0.80
2022-08-30T05:07:47.923Z,0.90
2022-08-30T05:10:14.801Z,0.80
2022-08-30T05:12:41.585Z,0.80
2022-08-30T05:15:08.712Z,0.90
2022-08-30T05:17:36.764Z,0.90
2022-08-30T05:20:03.916Z,0.70
2022-08-30T05:22:30.629Z,0.90
2022-08-30T05:24:57.839Z,0.70
2022-08-30T05:27:24.679Z,0.80
2022-08-30T05:29:51.592Z,0.87
2022-08-30T05:32:19.217Z,1.00
2022-08-30T05:34:46.897Z,1.03
2022-08-30T05:37:18.417Z,0.77
2022-08-30T05:39:51.292Z,1.00
2022-08-30T05:42:19.241Z,0.70
2022-08-30T05:44:46.080Z,0.77
2022-08-30T05:47:12.874Z,1.17
2022-08-30T05:49:39.596Z,0.83
2022-08-30T05:52:06.475Z,0.90
2022-08-30T05:54:33.239Z,1.00
2022-08-30T05:57:00.027Z,1.17
2022-08-30T05:59:26.921Z,0.77
2022-08-30T06:01:53.661Z,1.10
2022-08-30T06:04:20.450Z,0.90
2022-08-30T06:06:47.354Z,0.80
2022-08-30T06:09:14.622Z,0.80
2022-08-30T06:11:41.789Z,0.90
2022-08-30T06:14:08.641Z,0.90
2022-08-30T06:16:36.670Z,0.80
2022-08-30T06:19:03.587Z,0.67
2022-08-30T06:21:31.443Z,0.87
2022-08-30T06:23:58.889Z,0.90
2022-08-30T06:26:25.959Z,0.90
2022-08-30T06:28:53.711Z,0.80
2022-08-30T06:31:20.933Z,0.57
2022-08-30T06:33:48.545Z,0.70
2022-08-30T06:36:16.685Z,0.83
2022-08-30T06:38:45.571Z,0.60
2022-08-30T06:41:13.299Z,0.83
2022-08-30T06:43:44.501Z,0.90
2022-08-30T06:46:17.070Z,1.00
2022-08-30T06:48:46.410Z,0.70
2022-08-30T06:51:15.490Z,0.67
2022-08-30T06:53:44.368Z,0.90
2022-08-30T06:56:16.442Z,0.73
2022-08-30T06:58:45.012Z,0.70
2022-08-30T07:01:12.865Z,0.53
2022-08-30T07:03:40.571Z,0.60
2022-08-30T07:06:07.503Z,0.73
2022-08-30T07:08:34.496Z,0.63
2022-08-30T07:11:02.213Z,0.83
2022-08-30T07:13:29.107Z,0.73
2022-08-30T07:15:56.009Z,0.80
2022-08-30T07:18:41.760Z,0.70
2022-08-30T07:21:09.567Z,0.83
2022-08-30T07:23:36.477Z,0.70
2022-08-30T07:26:08.124Z,0.70
2022-08-30T07:28:36.412Z,0.87
2022-08-30T07:31:03.370Z,0.90
2022-08-30T07:33:30.712Z,0.63
2022-08-30T07:35:59.002Z,1.07
2022-08-30T07:38:28.921Z,0.80
2022-08-30T07:41:01.127Z,0.70
2022-08-30T07:43:28.657Z,0.63
2022-08-30T07:45:56.191Z,0.67
2022-08-30T07:48:23.348Z,0.80
2022-08-30T07:50:52.635Z,0.50
2022-08-30T07:53:23.220Z,0.60
2022-08-30T07:55:50.310Z,0.63
2022-08-30T07:58:17.285Z,0.70
2022-08-30T08:00:47.116Z,1.10
2022-08-30T08:03:13.901Z,0.80
2022-08-30T08:05:43.726Z,0.60
2022-08-30T08:08:10.655Z,0.70
2022-08-30T08:10:37.990Z,0.83
2022-08-30T08:13:04.924Z,0.90
2022-08-30T08:15:32.022Z,0.80
2022-08-30T08:17:58.932Z,0.80
2022-08-30T08:20:26.514Z,0.90
2022-08-30T08:22:53.399Z,0.73
2022-08-30T08:25:20.556Z,0.53
2022-08-30T08:27:48.931Z,0.83
2022-08-30T08:30:15.784Z,0.63
2022-08-30T08:32:42.649Z,0.70
2022-08-30T08:35:11.628Z,0.60
2022-08-30T08:37:39.582Z,0.50
2022-08-30T08:40:06.795Z,0.73
2022-08-30T08:42:48.127Z,0.73
2022-08-30T08:45:17.354Z,0.70
2022-08-30T08:47:58.475Z,0.93
2022-08-30T08:50:28.554Z,0.80
2022-08-30T08:53:20.557Z,0.80
2022-08-30T08:55:57.366Z,0.80
2022-08-30T08:58:26.209Z,0.60
2022-08-30T09:00:53.067Z,0.60
2022-08-30T09:03:21.632Z,0.60
2022-08-30T09:05:52.511Z,0.50
2022-08-30T09:08:21.080Z,0.63
2022-08-30T09:11:17.149Z,0.60
2022-08-30T09:13:44.951Z,0.80
2022-08-30T09:16:14.894Z,0.90
2022-08-30T09:18:54.614Z,0.80
2022-08-30T09:21:24.134Z,0.70
2022-08-30T09:24:07.944Z,0.63
2022-08-30T09:26:35.578Z,0.90
2022-08-30T09:29:02.577Z,0.70
2022-08-30T09:34:19.561Z,0.73
2022-08-30T09:36:49.856Z,0.70
2022-08-30T09:39:27.452Z,0.80
2022-08-30T09:41:55.317Z,0.70
2022-08-30T09:44:23.538Z,0.67
2022-08-30T09:46:54.531Z,0.80
2022-08-30T09:49:33.295Z,0.80
2022-08-30T09:52:09.567Z,0.70
2022-08-30T09:54:38.987Z,0.80
2022-08-30T09:57:16.748Z,0.90
2022-08-30T09:59:46.646Z,1.00
2022-08-30T10:05:16.222Z,0.70
2022-08-30T10:07:50.132Z,0.60
2022-08-30T10:10:24.645Z,0.90
2022-08-30T10:13:00.002Z,0.80
2022-08-30T10:15:32.594Z,0.90
2022-08-30T10:20:59.126Z,1.00
2022-08-30T10:23:29.622Z,1.10
2022-08-30T10:26:12.136Z,0.90
2022-08-30T10:28:52.388Z,1.10
2022-08-30T10:31:32.051Z,1.10
2022-08-30T10:34:05.432Z,1.00
2022-08-30T10:36:37.722Z,1.10
2022-08-30T10:39:04.883Z,0.87
2022-08-30T10:41:31.873Z,0.60
2022-08-30T10:44:20.775Z,0.80
2022-08-30T10:46:57.150Z,0.90
2022-08-30T10:49:25.167Z,0.80
2022-08-30T10:52:12.753Z,1.03
2022-08-30T10:54:43.120Z,0.97
2022-08-30T10:57:10.019Z,1.10
2022-08-30T10:59:37.281Z,0.90
2022-08-30T11:02:10.570Z,1.00
2022-08-30T11:04:56.762Z,0.80
2022-08-30T11:07:44.217Z,0.90
2022-08-30T11:10:26.997Z,0.87
2022-08-30T11:12:53.949Z,1.00
2022-08-30T11:15:21.972Z,1.00
2022-08-30T11:20:46.405Z,0.80
2022-08-30T11:23:14.854Z,1.00
2022-08-30T11:26:02.016Z,0.93
2022-08-30T11:28:36.103Z,1.40
2022-08-30T11:31:06.924Z,0.70
2022-08-30T11:33:46.073Z,0.90
2022-08-30T11:36:37.237Z,0.90
2022-08-30T11:39:08.888Z,1.00
2022-08-30T11:41:40.950Z,0.93
2022-08-30T11:44:26.402Z,0.80
2022-08-30T11:46:56.127Z,1.00
2022-08-30T11:52:27.714Z,1.07
2022-08-30T11:55:08.672Z,1.10
2022-08-30T11:57:54.850Z,1.20
2022-08-30T12:03:16.929Z,1.03
2022-08-30T12:05:45.753Z,1.13
2022-08-30T12:08:24.367Z,1.10
2022-08-30T12:10:56.277Z,0.80
2022-08-30T12:13:46.568Z,0.83
2022-08-30T12:16:23.478Z,0.93
2022-08-30T12:19:00.264Z,0.80
2022-08-30T12:21:29.272Z,0.90
2022-08-30T12:24:03.703Z,0.97
2022-08-30T12:26:32.581Z,0.90
2022-08-30T12:29:07.109Z,0.90
2022-08-30T12:31:34.464Z,1.00
2022-08-30T12:34:01.663Z,1.33
2022-08-30T12:36:31.671Z,0.93
2022-08-30T12:39:08.586Z,0.87
2022-08-30T12:41:36.288Z,1.20
2022-08-30T12:44:15.054Z,1.17
2022-08-30T12:46:42.327Z,0.83
2022-08-30T12:49:09.403Z,0.87
2022-08-30T12:51:41.099Z,0.90
2022-08-30T12:54:19.259Z,1.00
2022-08-30T12:56:49.456Z,0.60
2022-08-30T12:59:36.688Z,0.83
2022-08-30T13:02:22.917Z,0.83
2022-08-30T13:04:50.634Z,0.80
2022-08-30T13:07:24.627Z,1.10
2022-08-30T13:09:52.026Z,0.80
2022-08-30T13:12:21.970Z,0.83
2022-08-30T13:14:50.071Z,0.87
2022-08-30T13:17:19.440Z,0.70
2022-08-30T13:19:56.408Z,0.90
2022-08-30T13:22:33.453Z,0.87
2022-08-30T13:25:00.308Z,0.87
2022-08-30T13:27:27.495Z,1.00
2022-08-30T13:29:55.918Z,0.90
2022-08-30T13:32:22.938Z,0.73
2022-08-30T13:34:49.673Z,0.70
2022-08-30T13:40:05.727Z,0.80
2022-08-30T13:42:32.826Z,0.70
2022-08-30T13:45:00.035Z,0.70
2022-08-30T13:47:34.825Z,1.03
2022-08-30T13:50:02.361Z,0.80
2022-08-30T13:52:29.321Z,0.90
2022-08-30T13:54:57.007Z,0.70
2022-08-30T14:00:17.955Z,0.70
2022-08-30T14:02:51.554Z,0.90
2022-08-30T14:05:47.100Z,0.80
2022-08-30T14:08:44.307Z,0.67
2022-08-30T14:10:56.105Z,1.00
2022-08-30T14:13:23.505Z,0.80
2022-08-30T14:16:26.514Z,0.70
2022-08-30T14:18:39.228Z,0.80
2022-08-30T14:21:06.178Z,0.90
2022-08-30T14:23:33.193Z,0.80
2022-08-30T14:26:00.305Z,0.70
2022-08-30T14:28:30.042Z,1.20
2022-08-30T14:30:57.542Z,0.60
2022-08-30T14:33:24.447Z,0.80
2022-08-30T14:35:51.330Z,0.70
2022-08-30T14:38:18.553Z,0.67
2022-08-30T14:40:45.874Z,0.60
2022-08-30T14:43:12.901Z,0.77
2022-08-30T14:45:39.841Z,0.57
2022-08-30T14:48:11.637Z,0.70
2022-08-30T14:53:26.127Z,0.57
2022-08-30T14:58:37.283Z,0.60
2022-08-30T15:01:08.954Z,0.67
2022-08-30T15:03:36.574Z,0.70
2022-08-30T15:06:04.717Z,0.53
2022-08-30T15:11:16.644Z,0.80
2022-08-30T15:13:46.478Z,0.70
2022-08-30T15:16:15.290Z,0.87
2022-08-30T15:18:42.503Z,0.77
2022-08-30T15:21:10.911Z,0.80
2022-08-30T15:23:39.264Z,0.80
2022-08-30T15:26:06.864Z,0.67
2022-08-30T15:28:35.015Z,0.80
2022-08-30T15:31:08.253Z,0.63
2022-08-30T15:33:36.639Z,0.73
2022-08-30T15:36:04.963Z,0.80
2022-08-30T15:38:32.295Z,0.83
2022-08-30T15:41:02.471Z,0.90
2022-08-30T15:43:29.396Z,0.80
2022-08-30T15:45:56.787Z,0.70
2022-08-30T15:48:24.064Z,0.97
2022-08-30T15:50:58.216Z,0.73
2022-08-30T15:56:10.990Z,0.77
2022-08-30T15:58:39.600Z,0.83
2022-08-30T16:01:07.678Z,1.10
2022-08-30T16:03:34.681Z,0.83
2022-08-30T16:06:04.698Z,0.73
2022-08-30T16:08:31.712Z,0.80
2022-08-30T16:10:59.027Z,0.80
2022-08-30T16:13:26.186Z,0.70
2022-08-30T16:18:37.562Z,1.00
2022-08-30T16:21:07.697Z,0.70
2022-08-30T16:23:35.503Z,0.60
2022-08-30T16:26:04.222Z,0.60
2022-08-30T16:28:31.528Z,0.80
2022-08-30T16:30:58.379Z,0.60
2022-08-30T16:33:25.422Z,0.60
2022-08-30T16:35:52.933Z,0.70
2022-08-30T16:38:20.381Z,0.70
2022-08-30T16:40:47.807Z,0.93
2022-08-30T16:43:15.832Z,0.57
2022-08-30T16:45:43.352Z,0.87
2022-08-30T16:48:10.718Z,0.73
2022-08-30T16:50:39.338Z,0.87
2022-08-30T16:53:08.819Z,0.73
2022-08-30T16:55:38.221Z,0.80
2022-08-30T16:58:06.047Z,0.70
2022-08-30T17:00:33.107Z,0.90
2022-08-30T17:03:00.716Z,0.90
2022-08-30T17:05:27.922Z,0.83
2022-08-30T17:07:55.029Z,0.90
2022-08-30T17:10:23.187Z,0.93
2022-08-30T17:12:53.280Z,1.30
2022-08-30T17:15:20.929Z,1.10
2022-08-30T17:20:34.329Z,0.87
2022-08-30T17:23:02.121Z,1.27
2022-08-30T17:25:34.124Z,0.90
2022-08-30T17:28:05.156Z,1.10
2022-08-30T17:30:32.294Z,1.17
2022-08-30T17:32:59.348Z,0.77
2022-08-30T17:35:27.294Z,0.90
2022-08-30T17:37:54.265Z,0.90
2022-08-30T17:40:21.117Z,0.77
2022-08-30T17:42:48.376Z,0.87
2022-08-30T17:45:17.875Z,1.40
2022-08-30T17:47:45.141Z,0.90
2022-08-30T17:50:12.340Z,1.00
2022-08-30T17:52:39.248Z,0.97
2022-08-30T17:55:07.003Z,0.80
2022-08-30T17:57:35.837Z,0.80
2022-08-30T18:00:04.618Z,0.87
2022-08-30T18:05:17.310Z,0.87
2022-08-30T18:07:51.447Z,0.93
2022-08-30T18:10:19.918Z,1.07
2022-08-30T18:12:55.298Z,2.03
2022-08-30T18:15:22.050Z,2.27
2022-08-30T18:20:33.544Z,2.23
2022-08-30T18:23:00.295Z,1.60
2022-08-30T18:25:28.021Z,1.63
2022-08-30T18:27:58.161Z,5.40
2022-08-30T18:30:33.310Z,5.20
2022-08-30T18:33:01.062Z,5.00
2022-08-30T18:35:28.178Z,6.83
2022-08-30T18:37:55.343Z,4.93
2022-08-30T18:40:22.389Z,3.63
2022-08-30T18:42:53.470Z,2.53
2022-08-30T18:45:20.321Z,2.80
2022-08-30T18:47:47.977Z,5.20
2022-08-30T18:50:14.888Z,5.03
2022-08-30T18:52:44.988Z,3.93
2022-08-30T18:55:12.252Z,5.13
2022-08-30T18:57:40.796Z,6.13
2022-08-30T19:00:10.114Z,5.43
2022-08-30T19:02:37.225Z,2.97
2022-08-30T19:05:04.644Z,6.03
2022-08-30T19:10:21.137Z,7.23
2022-08-30T19:12:47.974Z,3.20
2022-08-30T19:15:17.635Z,2.97
2022-08-30T19:17:44.768Z,3.40
2022-08-30T19:20:12.661Z,4.13
2022-08-30T19:23:06.180Z,2.60
2022-08-30T19:25:29.028Z,2.40
2022-08-30T19:27:56.004Z,2.20
2022-08-30T19:30:29.306Z,1.97
2022-08-30T19:32:56.862Z,2.00
2022-08-30T19:35:24.410Z,2.20
2022-08-30T19:37:52.384Z,2.03
2022-08-30T19:40:20.809Z,2.10
2022-08-30T19:42:47.899Z,2.30
2022-08-30T19:45:21.519Z,1.90
2022-08-30T19:47:50.686Z,1.60
2022-08-30T19:50:19.190Z,1.60
2022-08-30T19:52:52.629Z,1.40
2022-08-30T19:58:04.853Z,1.40
2022-08-30T20:00:33.936Z,1.37
2022-08-30T20:03:03.466Z,1.77
2022-08-30T20:05:33.941Z,1.37
2022-08-30T20:08:01.119Z,1.37
2022-08-30T20:10:31.201Z,1.20
2022-08-30T20:12:58.273Z,1.60
2022-08-30T20:18:14.393Z,1.53
2022-08-30T20:20:49.487Z,1.00
2022-08-30T20:23:19.710Z,1.30
2022-08-30T20:24:31.857Z,8.00
2022-08-30T20:28:35.470Z,1.20
2022-08-30T20:31:03.198Z,1.50
2022-08-30T20:33:30.360Z,1.70
2022-08-30T20:36:00.702Z,1.70
2022-08-30T20:38:27.725Z,1.70
2022-08-30T20:40:55.820Z,2.03
2022-08-30T20:46:09.381Z,2.43
2022-08-30T20:51:23.356Z,1.63
2022-08-30T20:53:50.724Z,2.20
2022-08-30T20:56:18.481Z,1.97
2022-08-30T20:58:45.308Z,2.43
2022-08-30T21:01:12.654Z,2.37
2022-08-30T21:03:39.682Z,2.07
2022-08-30T21:06:07.564Z,1.77
2022-08-30T21:08:34.594Z,1.43
2022-08-30T21:11:02.126Z,1.30
2022-08-30T21:13:29.393Z,1.30
2022-08-30T21:16:00.424Z,1.43
2022-08-30T21:18:32.937Z,1.80
2022-08-30T21:21:00.572Z,1.73
2022-08-30T21:23:27.964Z,1.60
2022-08-30T21:25:56.257Z,1.50
2022-08-30T21:28:25.546Z,1.40
2022-08-30T21:31:02.795Z,1.50
2022-08-30T21:33:29.627Z,1.60
2022-08-30T21:36:16.590Z,1.63
2022-08-30T21:38:43.955Z,1.60
2022-08-30T21:41:11.418Z,1.60
2022-08-30T21:43:38.158Z,1.23
2022-08-30T21:46:07.993Z,1.60
2022-08-30T21:48:37.304Z,1.40
2022-08-30T21:51:08.964Z,1.60
2022-08-30T21:53:36.182Z,1.30
2022-08-30T21:56:16.290Z,1.30
2022-08-30T21:58:48.132Z,1.30
2022-08-30T22:01:19.411Z,1.20
2022-08-30T22:03:46.738Z,1.13
2022-08-30T22:06:13.849Z,1.10
2022-08-30T22:08:42.209Z,1.33
2022-08-30T22:11:09.415Z,1.33
2022-08-30T22:13:36.427Z,0.90
2022-08-30T22:16:03.672Z,1.20
2022-08-30T22:18:30.489Z,1.20
2022-08-30T22:20:57.549Z,1.20
2022-08-30T22:23:25.060Z,1.20
2022-08-30T22:25:52.520Z,1.00
2022-08-30T22:28:20.151Z,1.20
2022-08-30T22:30:47.808Z,1.00
2022-08-30T22:33:15.419Z,0.93
2022-08-30T22:35:42.604Z,1.10
2022-08-30T22:38:09.610Z,1.03
2022-08-30T22:40:36.456Z,0.90
2022-08-30T22:43:03.283Z,1.07
2022-08-30T22:45:31.323Z,1.00
2022-08-30T22:47:58.487Z,1.10
2022-08-30T22:50:25.230Z,1.00
2022-08-30T22:52:52.389Z,1.30
2022-08-30T22:55:19.311Z,1.20
2022-08-30T22:57:46.025Z,1.20
2022-08-30T23:00:17.718Z,1.10
2022-08-30T23:02:47.772Z,1.20
2022-08-30T23:05:14.661Z,1.20
2022-08-30T23:07:41.907Z,1.10
2022-08-30T23:10:09.155Z,1.10
2022-08-30T23:12:39.107Z,0.90
2022-08-30T23:15:07.534Z,1.07
2022-08-30T23:17:39.479Z,1.30
2022-08-30T23:20:07.038Z,1.20
2022-08-30T23:22:34.027Z,1.00
2022-08-30T23:25:19.288Z,1.10
2022-08-30T23:28:04.939Z,0.97
2022-08-30T23:33:53.236Z,1.10
2022-08-30T23:36:38.547Z,1.10
2022-08-30T23:39:23.853Z,1.37
2022-08-30T23:42:09.425Z,1.00
2022-08-30T23:44:54.958Z,1.13
2022-08-30T23:47:40.264Z,1.10
2022-08-30T23:50:25.791Z,1.00
2022-08-30T23:56:15.028Z,0.83
2022-08-30T23:59:00.615Z,1.00
